SPMKA EPNL-EPRG
Flight info
| Callsign | SPMKA |
|---|---|
| Flight time | 0h 48m |
| Altitude | 4500 |
| Route | DCT EPKKS DCT EPKKK DCT AEPKK DCT EPKMA DCT EPRGB DCT |
| Aircraft | C172/L-VGD/A |
Departure
| Time | 2026-05-05 14:36 |
|---|---|
| Airport | Nowy Sącz-Łososina Dolna Airfield (EPNL) |
Arrival
| Time | 2026-05-05 15:24 |
|---|---|
| Airport | Rybnik-Gotartowice Glider Field (EPRG) |
| Time | Latitude | Longitude | Altitude | Speed | Heading |
|---|---|---|---|---|---|
| 2026-05-05 14:24 | 49.74595 | 20.62082 | 828 ft | 0 kts | 311° |
| 2026-05-05 14:31 | 49.74595 | 20.62075 | 833 ft | 3 kts | 252° |
| 2026-05-05 14:31 | 49.74580 | 20.62085 | 836 ft | 0 kts | 122° |
| 2026-05-05 14:33 | 49.74575 | 20.62092 | 836 ft | 4 kts | 138° |
| 2026-05-05 14:33 | 49.74521 | 20.62077 | 835 ft | 10 kts | 197° |
| 2026-05-05 14:33 | 49.74477 | 20.62061 | 836 ft | 4 kts | 180° |
| 2026-05-05 14:33 | 49.74423 | 20.62047 | 837 ft | 15 kts | 195° |
| 2026-05-05 14:34 | 49.74315 | 20.61947 | 843 ft | 14 kts | 220° |
| 2026-05-05 14:34 | 49.74268 | 20.61922 | 844 ft | 6 kts | 110° |
| 2026-05-05 14:34 | 49.74280 | 20.61955 | 844 ft | 3 kts | 44° |
| 2026-05-05 14:34 | 49.74308 | 20.61971 | 842 ft | 14 kts | 351° |
| 2026-05-05 14:35 | 49.74480 | 20.62227 | 836 ft | 59 kts | 50° |
| 2026-05-05 14:35 | 49.74876 | 20.62813 | 842 ft | 93 kts | 50° |
| 2026-05-05 14:35 | 49.75375 | 20.63453 | 1008 ft | 98 kts | 41° |
| 2026-05-05 14:35 | 49.75889 | 20.63300 | 1117 ft | 90 kts | 285° |
| 2026-05-05 14:36 | 49.76081 | 20.62495 | 1327 ft | 78 kts | 281° |
| 2026-05-05 14:36 | 49.76218 | 20.61700 | 1400 ft | 79 kts | 278° |
| 2026-05-05 14:36 | 49.76395 | 20.60854 | 1561 ft | 86 kts | 282° |
| 2026-05-05 14:36 | 49.76589 | 20.60006 | 1773 ft | 83 kts | 283° |
| 2026-05-05 14:37 | 49.76803 | 20.59131 | 1847 ft | 93 kts | 284° |
| 2026-05-05 14:37 | 49.77054 | 20.58188 | 1948 ft | 94 kts | 283° |
| 2026-05-05 14:37 | 49.77303 | 20.57298 | 2104 ft | 85 kts | 288° |
| 2026-05-05 14:37 | 49.77529 | 20.56467 | 2328 ft | 86 kts | 281° |
| 2026-05-05 14:38 | 49.77765 | 20.55621 | 2657 ft | 83 kts | 279° |
| 2026-05-05 14:38 | 49.77996 | 20.54795 | 2865 ft | 85 kts | 283° |
| 2026-05-05 14:38 | 49.78229 | 20.53962 | 2970 ft | 84 kts | 283° |
| 2026-05-05 14:38 | 49.78459 | 20.53156 | 3133 ft | 80 kts | 283° |
| 2026-05-05 14:39 | 49.78667 | 20.52408 | 3133 ft | 75 kts | 279° |
| 2026-05-05 14:39 | 49.78875 | 20.51658 | 3205 ft | 80 kts | 281° |
| 2026-05-05 14:39 | 49.79119 | 20.50781 | 3293 ft | 99 kts | 283° |
| 2026-05-05 14:39 | 49.79422 | 20.49731 | 3366 ft | 112 kts | 283° |
| 2026-05-05 14:40 | 49.79745 | 20.48578 | 3453 ft | 120 kts | 284° |
| 2026-05-05 14:40 | 49.80083 | 20.47388 | 3525 ft | 122 kts | 282° |
| 2026-05-05 14:40 | 49.80420 | 20.46199 | 3584 ft | 117 kts | 281° |
| 2026-05-05 14:40 | 49.80739 | 20.45064 | 3646 ft | 113 kts | 280° |
| 2026-05-05 14:41 | 49.81044 | 20.43980 | 3721 ft | 106 kts | 280° |
| 2026-05-05 14:41 | 49.81337 | 20.42937 | 3790 ft | 104 kts | 279° |
| 2026-05-05 14:41 | 49.81627 | 20.41897 | 3875 ft | 108 kts | 282° |
| 2026-05-05 14:41 | 49.81924 | 20.40858 | 3963 ft | 104 kts | 283° |
| 2026-05-05 14:42 | 49.82208 | 20.39831 | 4075 ft | 103 kts | 283° |
| 2026-05-05 14:42 | 49.82489 | 20.38817 | 4196 ft | 103 kts | 282° |
| 2026-05-05 14:42 | 49.82780 | 20.37781 | 4323 ft | 107 kts | 282° |
| 2026-05-05 14:42 | 49.83081 | 20.36706 | 4452 ft | 110 kts | 283° |
| 2026-05-05 14:43 | 49.83392 | 20.35590 | 4511 ft | 118 kts | 284° |
| 2026-05-05 14:43 | 49.83729 | 20.34390 | 4516 ft | 123 kts | 285° |
| 2026-05-05 14:43 | 49.84067 | 20.33186 | 4525 ft | 118 kts | 287° |
| 2026-05-05 14:43 | 49.84389 | 20.32038 | 4520 ft | 115 kts | 286° |
| 2026-05-05 14:44 | 49.84707 | 20.30902 | 4515 ft | 114 kts | 285° |
| 2026-05-05 14:44 | 49.85022 | 20.29775 | 4515 ft | 114 kts | 282° |
| 2026-05-05 14:44 | 49.85339 | 20.28624 | 4519 ft | 118 kts | 284° |
| 2026-05-05 14:44 | 49.85670 | 20.27454 | 4524 ft | 119 kts | 283° |
| 2026-05-05 14:45 | 49.85999 | 20.26264 | 4522 ft | 124 kts | 284° |
| 2026-05-05 14:45 | 49.86347 | 20.25022 | 4517 ft | 126 kts | 284° |
| 2026-05-05 14:45 | 49.86692 | 20.23790 | 4514 ft | 122 kts | 283° |
| 2026-05-05 14:45 | 49.87026 | 20.22595 | 4509 ft | 118 kts | 285° |
| 2026-05-05 14:46 | 49.87351 | 20.21428 | 4509 ft | 118 kts | 285° |
| 2026-05-05 14:46 | 49.87673 | 20.20243 | 4512 ft | 120 kts | 285° |
| 2026-05-05 14:46 | 49.88005 | 20.19068 | 4511 ft | 118 kts | 284° |
| 2026-05-05 14:46 | 49.88327 | 20.17911 | 4506 ft | 119 kts | 284° |
| 2026-05-05 14:47 | 49.88655 | 20.16731 | 4505 ft | 118 kts | 285° |
| 2026-05-05 14:47 | 49.88975 | 20.15569 | 4503 ft | 118 kts | 285° |
| 2026-05-05 14:47 | 49.89307 | 20.14380 | 4504 ft | 121 kts | 284° |
| 2026-05-05 14:47 | 49.89642 | 20.13165 | 4511 ft | 123 kts | 284° |
| 2026-05-05 14:48 | 49.89980 | 20.11945 | 4511 ft | 123 kts | 283° |
| 2026-05-05 14:48 | 49.90317 | 20.10738 | 4511 ft | 121 kts | 284° |
| 2026-05-05 14:48 | 49.90644 | 20.09558 | 4509 ft | 120 kts | 285° |
| 2026-05-05 14:48 | 49.90974 | 20.08358 | 4508 ft | 121 kts | 285° |
| 2026-05-05 14:49 | 49.91306 | 20.07156 | 4514 ft | 121 kts | 284° |
| 2026-05-05 14:49 | 49.91639 | 20.05952 | 4513 ft | 121 kts | 284° |
| 2026-05-05 14:49 | 49.91971 | 20.04756 | 4512 ft | 121 kts | 284° |
| 2026-05-05 14:49 | 49.92304 | 20.03546 | 4504 ft | 123 kts | 285° |
| 2026-05-05 14:50 | 49.92639 | 20.02325 | 4505 ft | 123 kts | 284° |
| 2026-05-05 14:50 | 49.92983 | 20.01093 | 4497 ft | 124 kts | 284° |
| 2026-05-05 14:50 | 49.93313 | 19.99893 | 4496 ft | 120 kts | 284° |
| 2026-05-05 14:50 | 49.93638 | 19.98712 | 4494 ft | 119 kts | 284° |
| 2026-05-05 14:51 | 49.93960 | 19.97548 | 4492 ft | 116 kts | 283° |
| 2026-05-05 14:51 | 49.94273 | 19.96399 | 4499 ft | 116 kts | 283° |
| 2026-05-05 14:51 | 49.94590 | 19.95261 | 4491 ft | 112 kts | 282° |
| 2026-05-05 14:51 | 49.94893 | 19.94154 | 4494 ft | 112 kts | 283° |
| 2026-05-05 14:52 | 49.95202 | 19.93021 | 4509 ft | 116 kts | 283° |
| 2026-05-05 14:52 | 49.95521 | 19.91868 | 4505 ft | 116 kts | 283° |
| 2026-05-05 14:52 | 49.95832 | 19.90741 | 4495 ft | 113 kts | 283° |
| 2026-05-05 14:52 | 49.96130 | 19.89647 | 4498 ft | 109 kts | 283° |
| 2026-05-05 14:53 | 49.96432 | 19.88554 | 4492 ft | 110 kts | 282° |
| 2026-05-05 14:53 | 49.96732 | 19.87445 | 4498 ft | 112 kts | 283° |
| 2026-05-05 14:53 | 49.97044 | 19.86308 | 4500 ft | 116 kts | 283° |
| 2026-05-05 14:53 | 49.97361 | 19.85158 | 4494 ft | 115 kts | 284° |
| 2026-05-05 14:54 | 49.97673 | 19.84019 | 4495 ft | 115 kts | 283° |
| 2026-05-05 14:54 | 49.97994 | 19.82860 | 4501 ft | 119 kts | 287° |
| 2026-05-05 14:54 | 49.98564 | 19.81880 | 4505 ft | 131 kts | 314° |
| 2026-05-05 14:54 | 49.99485 | 19.81276 | 3353 ft | 173 kts | 346° |
| 2026-05-05 14:55 | 50.00635 | 19.81113 | 2750 ft | 157 kts | 352° |
| 2026-05-05 14:55 | 50.01679 | 19.81031 | 2315 ft | 141 kts | 350° |
| 2026-05-05 14:55 | 50.02611 | 19.80923 | 2049 ft | 127 kts | 346° |
| 2026-05-05 14:55 | 50.03429 | 19.80757 | 1981 ft | 115 kts | 345° |
| 2026-05-05 14:56 | 50.04232 | 19.80553 | 1930 ft | 121 kts | 342° |
| 2026-05-05 14:56 | 50.05059 | 19.80264 | 1862 ft | 116 kts | 339° |
| 2026-05-05 14:56 | 50.05816 | 19.80241 | 1846 ft | 110 kts | 29° |
| 2026-05-05 14:56 | 50.06204 | 19.81199 | 1763 ft | 108 kts | 83° |
| 2026-05-05 14:57 | 50.06394 | 19.82361 | 1642 ft | 114 kts | 83° |
| 2026-05-05 14:57 | 50.06556 | 19.83539 | 1510 ft | 114 kts | 82° |
| 2026-05-05 14:57 | 50.07016 | 19.84460 | 1491 ft | 109 kts | 16° |
| 2026-05-05 14:57 | 50.07743 | 19.84654 | 1470 ft | 106 kts | 353° |
| 2026-05-05 14:58 | 50.08337 | 19.84137 | 1409 ft | 96 kts | 291° |
| 2026-05-05 14:58 | 50.08457 | 19.83124 | 1294 ft | 99 kts | 254° |
| 2026-05-05 14:58 | 50.08258 | 19.82078 | 1151 ft | 99 kts | 254° |
| 2026-05-05 14:58 | 50.08135 | 19.81048 | 990 ft | 96 kts | 256° |
| 2026-05-05 14:59 | 50.07990 | 19.80043 | 827 ft | 91 kts | 256° |
| 2026-05-05 14:59 | 50.07872 | 19.79184 | 831 ft | 76 kts | 252° |
| 2026-05-05 14:59 | 50.07741 | 19.78362 | 982 ft | 81 kts | 250° |
| 2026-05-05 14:59 | 50.07567 | 19.77465 | 1029 ft | 96 kts | 253° |
| 2026-05-05 15:00 | 50.07452 | 19.76519 | 1303 ft | 86 kts | 255° |
| 2026-05-05 15:00 | 50.07380 | 19.75913 | 1463 ft | 81 kts | 253° |
| 2026-05-05 15:00 | 50.07316 | 19.74840 | 1786 ft | 69 kts | 259° |
| 2026-05-05 15:00 | 50.07293 | 19.74107 | 1882 ft | 68 kts | 259° |
| 2026-05-05 15:01 | 50.07286 | 19.73284 | 2012 ft | 88 kts | 259° |
| 2026-05-05 15:01 | 50.07267 | 19.72251 | 1994 ft | 97 kts | 259° |
| 2026-05-05 15:01 | 50.07263 | 19.71208 | 1989 ft | 97 kts | 270° |
| 2026-05-05 15:01 | 50.07317 | 19.70189 | 1988 ft | 92 kts | 266° |
| 2026-05-05 15:02 | 50.07349 | 19.69191 | 1991 ft | 93 kts | 266° |
| 2026-05-05 15:02 | 50.07382 | 19.68191 | 1991 ft | 90 kts | 268° |
| 2026-05-05 15:02 | 50.07421 | 19.67252 | 1989 ft | 85 kts | 266° |
| 2026-05-05 15:02 | 50.07445 | 19.66279 | 2015 ft | 99 kts | 264° |
| 2026-05-05 15:03 | 50.07434 | 19.65116 | 2008 ft | 113 kts | 256° |
| 2026-05-05 15:03 | 50.07140 | 19.64015 | 2007 ft | 114 kts | 240° |
| 2026-05-05 15:03 | 50.06985 | 19.62780 | 2008 ft | 121 kts | 264° |
| 2026-05-05 15:03 | 50.07079 | 19.61457 | 2008 ft | 123 kts | 268° |
| 2026-05-05 15:04 | 50.07198 | 19.60163 | 2001 ft | 118 kts | 271° |
| 2026-05-05 15:04 | 50.07331 | 19.58898 | 1999 ft | 117 kts | 271° |
| 2026-05-05 15:04 | 50.07463 | 19.57663 | 1998 ft | 116 kts | 273° |
| 2026-05-05 15:04 | 50.07594 | 19.56435 | 1996 ft | 116 kts | 274° |
| 2026-05-05 15:05 | 50.07866 | 19.53892 | 2002 ft | 125 kts | 271° |
| 2026-05-05 15:05 | 50.08014 | 19.52552 | 1993 ft | 125 kts | 271° |
| 2026-05-05 15:05 | 50.08158 | 19.51225 | 1988 ft | 124 kts | 269° |
| 2026-05-05 15:06 | 50.08304 | 19.49934 | 1990 ft | 117 kts | 271° |
| 2026-05-05 15:06 | 50.08434 | 19.48711 | 1988 ft | 112 kts | 271° |
| 2026-05-05 15:06 | 50.08562 | 19.47538 | 2037 ft | 108 kts | 271° |
| 2026-05-05 15:06 | 50.08685 | 19.46368 | 2109 ft | 111 kts | 271° |
| 2026-05-05 15:07 | 50.08813 | 19.45183 | 2270 ft | 111 kts | 271° |
| 2026-05-05 15:07 | 50.08941 | 19.44001 | 2454 ft | 110 kts | 269° |
| 2026-05-05 15:07 | 50.09069 | 19.42785 | 2483 ft | 118 kts | 267° |
| 2026-05-05 15:07 | 50.09205 | 19.41519 | 2498 ft | 123 kts | 268° |
| 2026-05-05 15:08 | 50.09352 | 19.40186 | 2501 ft | 126 kts | 269° |
| 2026-05-05 15:08 | 50.09497 | 19.38833 | 2499 ft | 127 kts | 269° |
| 2026-05-05 15:08 | 50.09644 | 19.37473 | 2495 ft | 127 kts | 269° |
| 2026-05-05 15:08 | 50.09791 | 19.36131 | 2496 ft | 125 kts | 270° |
| 2026-05-05 15:09 | 50.09933 | 19.34816 | 2494 ft | 122 kts | 271° |
| 2026-05-05 15:09 | 50.10071 | 19.33530 | 2487 ft | 118 kts | 269° |
| 2026-05-05 15:09 | 50.10205 | 19.32260 | 2490 ft | 119 kts | 270° |
| 2026-05-05 15:09 | 50.10342 | 19.30971 | 2489 ft | 122 kts | 271° |
| 2026-05-05 15:10 | 50.10481 | 19.29661 | 2492 ft | 123 kts | 270° |
| 2026-05-05 15:10 | 50.10623 | 19.28322 | 2496 ft | 127 kts | 270° |
| 2026-05-05 15:10 | 50.10768 | 19.26961 | 2496 ft | 127 kts | 270° |
| 2026-05-05 15:10 | 50.10914 | 19.25634 | 2489 ft | 121 kts | 269° |
| 2026-05-05 15:11 | 50.11049 | 19.24350 | 2491 ft | 120 kts | 269° |
| 2026-05-05 15:11 | 50.11183 | 19.23073 | 2490 ft | 122 kts | 269° |
| 2026-05-05 15:11 | 50.11322 | 19.21762 | 2494 ft | 122 kts | 270° |
| 2026-05-05 15:11 | 50.11462 | 19.20450 | 2495 ft | 124 kts | 271° |
| 2026-05-05 15:12 | 50.11604 | 19.19108 | 2495 ft | 126 kts | 270° |
| 2026-05-05 15:12 | 50.11747 | 19.17741 | 2492 ft | 129 kts | 271° |
| 2026-05-05 15:12 | 50.11892 | 19.16369 | 2487 ft | 128 kts | 271° |
| 2026-05-05 15:12 | 50.12035 | 19.15025 | 2480 ft | 124 kts | 271° |
| 2026-05-05 15:13 | 50.12171 | 19.13729 | 2480 ft | 123 kts | 270° |
| 2026-05-05 15:13 | 50.12311 | 19.12400 | 2484 ft | 125 kts | 271° |
| 2026-05-05 15:13 | 50.12451 | 19.11080 | 2487 ft | 122 kts | 271° |
| 2026-05-05 15:13 | 50.12586 | 19.09796 | 2490 ft | 118 kts | 271° |
| 2026-05-05 15:14 | 50.12718 | 19.08533 | 2488 ft | 118 kts | 269° |
| 2026-05-05 15:14 | 50.12849 | 19.07263 | 2492 ft | 119 kts | 269° |
| 2026-05-05 15:14 | 50.12983 | 19.05995 | 2489 ft | 118 kts | 269° |
| 2026-05-05 15:14 | 50.13114 | 19.04723 | 2490 ft | 121 kts | 269° |
| 2026-05-05 15:15 | 50.13251 | 19.03425 | 2495 ft | 122 kts | 271° |
| 2026-05-05 15:15 | 50.13286 | 19.02125 | 2482 ft | 117 kts | 254° |
| 2026-05-05 15:15 | 50.13109 | 19.00905 | 2483 ft | 115 kts | 252° |
| 2026-05-05 15:15 | 50.12940 | 18.99709 | 2476 ft | 115 kts | 251° |
| 2026-05-05 15:16 | 50.12770 | 18.98506 | 2479 ft | 113 kts | 249° |
| 2026-05-05 15:16 | 50.12601 | 18.97306 | 2483 ft | 114 kts | 250° |
| 2026-05-05 15:16 | 50.12430 | 18.96089 | 2483 ft | 116 kts | 251° |
| 2026-05-05 15:16 | 50.12255 | 18.94862 | 2484 ft | 116 kts | 250° |
| 2026-05-05 15:17 | 50.12083 | 18.93635 | 2474 ft | 116 kts | 251° |
| 2026-05-05 15:17 | 50.11910 | 18.92413 | 2473 ft | 113 kts | 249° |
| 2026-05-05 15:17 | 50.11742 | 18.91227 | 2470 ft | 111 kts | 249° |
| 2026-05-05 15:17 | 50.11576 | 18.90055 | 2474 ft | 110 kts | 250° |
| 2026-05-05 15:18 | 50.11409 | 18.88877 | 2475 ft | 111 kts | 249° |
| 2026-05-05 15:18 | 50.11242 | 18.87711 | 2478 ft | 111 kts | 250° |
| 2026-05-05 15:18 | 50.11075 | 18.86527 | 2479 ft | 113 kts | 251° |
| 2026-05-05 15:18 | 50.10903 | 18.85327 | 2485 ft | 116 kts | 250° |
| 2026-05-05 15:19 | 50.10725 | 18.84088 | 2482 ft | 118 kts | 251° |
| 2026-05-05 15:19 | 50.10554 | 18.82864 | 2477 ft | 113 kts | 250° |
| 2026-05-05 15:19 | 50.10383 | 18.81667 | 2480 ft | 113 kts | 249° |
| 2026-05-05 15:19 | 50.10213 | 18.80477 | 2481 ft | 111 kts | 249° |
| 2026-05-05 15:20 | 50.10102 | 18.79699 | 2481 ft | 111 kts | 249° |
| 2026-05-05 15:20 | 50.09931 | 18.78506 | 2475 ft | 113 kts | 251° |
| 2026-05-05 15:20 | 50.09709 | 18.76946 | 2468 ft | 109 kts | 251° |
| 2026-05-05 15:20 | 50.09544 | 18.75797 | 2469 ft | 108 kts | 252° |
| 2026-05-05 15:21 | 50.09435 | 18.75033 | 2467 ft | 109 kts | 251° |
| 2026-05-05 15:21 | 50.09271 | 18.73892 | 2463 ft | 106 kts | 249° |
| 2026-05-05 15:21 | 50.09106 | 18.72751 | 2350 ft | 106 kts | 251° |
| 2026-05-05 15:21 | 50.08943 | 18.71588 | 1991 ft | 113 kts | 251° |
| 2026-05-05 15:22 | 50.08774 | 18.70399 | 1732 ft | 113 kts | 251° |
| 2026-05-05 15:22 | 50.08609 | 18.69245 | 1676 ft | 103 kts | 251° |
| 2026-05-05 15:22 | 50.08456 | 18.68193 | 1668 ft | 97 kts | 251° |
| 2026-05-05 15:22 | 50.08301 | 18.67191 | 1662 ft | 93 kts | 244° |
| 2026-05-05 15:23 | 50.07895 | 18.66484 | 1573 ft | 88 kts | 207° |
| 2026-05-05 15:23 | 50.07335 | 18.66056 | 1400 ft | 89 kts | 208° |
| 2026-05-05 15:23 | 50.06887 | 18.65420 | 1308 ft | 87 kts | 236° |
| 2026-05-05 15:23 | 50.06835 | 18.64503 | 1151 ft | 92 kts | 275° |
| 2026-05-05 15:24 | 50.07033 | 18.63595 | 941 ft | 78 kts | 275° |
| 2026-05-05 15:24 | 50.07167 | 18.62923 | 836 ft | 54 kts | 276° |
| 2026-05-05 15:24 | 50.07288 | 18.62769 | 838 ft | 4 kts | 21° |